createdAt,value
2018-04-10T00:00:34.302Z,99434.45
2018-04-10T00:03:02.171Z,99435.97
2018-04-10T00:05:30.060Z,99428.53
2018-04-10T00:07:57.654Z,99428.75
2018-04-10T00:10:26.947Z,99444.22
2018-04-10T00:12:54.579Z,99440.39
2018-04-10T00:15:22.648Z,99442.23
2018-04-10T00:17:50.614Z,99442.80
2018-04-10T00:20:18.923Z,99434.14
2018-04-10T00:22:46.550Z,99433.45
2018-04-10T00:25:14.162Z,99427.81
2018-04-10T00:27:41.714Z,99419.25
2018-04-10T00:30:09.978Z,99415.16
2018-04-10T00:32:37.935Z,99414.02
2018-04-10T00:35:05.812Z,99410.53
2018-04-10T00:37:33.720Z,99410.84
2018-04-10T00:40:02.152Z,99414.39
2018-04-10T00:42:30.266Z,99412.00
2018-04-10T00:44:57.821Z,99411.50
2018-04-10T00:47:25.662Z,99411.73
2018-04-10T00:49:53.230Z,99402.66
2018-04-10T00:52:21.134Z,99407.62
2018-04-10T00:54:48.758Z,99406.13
2018-04-10T00:57:16.915Z,99412.69
2018-04-10T00:59:44.466Z,99417.11
2018-04-10T01:02:12.063Z,99414.53
2018-04-10T01:04:39.946Z,99418.32
2018-04-10T01:07:08.279Z,99423.57
2018-04-10T01:09:35.844Z,99422.63
2018-04-10T01:12:03.434Z,99426.23
2018-04-10T01:14:31.047Z,99419.95
2018-04-10T01:16:58.606Z,99417.99
2018-04-10T01:19:26.621Z,99404.16
2018-04-10T01:21:54.174Z,99399.77
2018-04-10T01:24:21.733Z,99406.27
2018-04-10T01:26:49.289Z,99409.48
2018-04-10T01:29:16.975Z,99404.97
2018-04-10T01:31:45.061Z,99406.12
2018-04-10T01:34:12.618Z,99408.37
2018-04-10T01:36:40.218Z,99407.73
2018-04-10T01:39:08.736Z,99418.39
2018-04-10T01:41:36.689Z,99417.00
2018-04-10T01:44:04.489Z,99418.17
2018-04-10T01:46:32.655Z,99421.46
2018-04-10T01:49:00.878Z,99416.67
2018-04-10T01:51:28.431Z,99412.59
2018-04-10T01:53:56.044Z,99422.39
2018-04-10T01:56:24.043Z,99419.42
2018-04-10T01:58:51.589Z,99425.97
2018-04-10T02:01:19.142Z,99426.16
2018-04-10T02:03:47.174Z,99429.83
2018-04-10T02:06:14.722Z,99425.25
2018-04-10T02:08:42.274Z,99431.05
2018-04-10T02:11:09.877Z,99433.14
2018-04-10T02:13:37.426Z,99420.91
2018-04-10T02:16:05.034Z,99424.50
2018-04-10T02:18:32.886Z,99425.76
2018-04-10T02:21:00.502Z,99421.61
2018-04-10T02:23:28.911Z,99421.74
2018-04-10T02:25:56.462Z,99416.47
2018-04-10T02:28:24.058Z,99414.65
2018-04-10T02:30:52.115Z,99413.63
2018-04-10T02:33:20.014Z,99414.60
2018-04-10T02:35:47.774Z,99419.30
2018-04-10T02:38:15.326Z,99419.83
2018-04-10T02:40:42.938Z,99423.66
2018-04-10T02:43:10.490Z,99422.58
2018-04-10T02:45:38.085Z,99430.39
2018-04-10T02:48:06.219Z,99438.56
2018-04-10T02:50:34.357Z,99433.86
2018-04-10T02:53:02.587Z,99433.22
2018-04-10T02:55:30.570Z,99438.27
2018-04-10T02:57:58.171Z,99445.16
2018-04-10T03:00:25.770Z,99445.22
2018-04-10T03:02:54.513Z,99437.76
2018-04-10T03:05:22.122Z,99444.77
2018-04-10T03:07:49.953Z,99431.24
2018-04-10T03:10:17.506Z,99427.77
2018-04-10T03:12:45.630Z,99430.20
2018-04-10T03:15:13.258Z,99431.70
2018-04-10T03:17:40.822Z,99428.42
2018-04-10T03:20:08.618Z,99430.50
2018-04-10T03:22:36.170Z,99430.00
2018-04-10T03:25:03.814Z,99428.81
2018-04-10T03:27:31.378Z,99427.77
2018-04-10T03:29:59.365Z,99428.73
2018-04-10T03:32:27.329Z,99433.08
2018-04-10T03:34:54.918Z,99423.44
2018-04-10T03:37:22.471Z,99426.05
2018-04-10T03:39:50.136Z,99419.19
2018-04-10T03:42:17.698Z,99425.62
2018-04-10T03:44:45.290Z,99425.01
2018-04-10T03:47:13.422Z,99420.75
2018-04-10T03:49:41.014Z,99422.37
2018-04-10T03:52:08.606Z,99420.84
2018-04-10T03:54:36.159Z,99426.92
2018-04-10T03:57:04.161Z,99418.14
2018-04-10T03:59:32.201Z,99427.20
2018-04-10T04:02:00.317Z,99424.70
2018-04-10T04:04:28.214Z,99430.24
2018-04-10T04:06:56.148Z,99428.31
2018-04-10T04:09:23.700Z,99432.38
2018-04-10T04:11:51.475Z,99437.00
2018-04-10T04:14:19.027Z,99432.88
2018-04-10T04:16:58.178Z,99442.18
2018-04-10T04:19:37.406Z,99435.45
2018-04-10T04:22:16.607Z,99431.78
2018-04-10T04:24:44.711Z,99428.27
2018-04-10T04:27:12.645Z,99434.60
2018-04-10T04:29:40.193Z,99429.73
2018-04-10T04:32:08.022Z,99429.93
2018-04-10T04:34:35.573Z,99433.91
2018-04-10T04:37:03.835Z,99429.64
2018-04-10T04:39:31.442Z,99423.93
2018-04-10T04:41:59.539Z,99430.71
2018-04-10T04:44:27.606Z,99428.53
2018-04-10T04:46:55.158Z,99425.98
2018-04-10T04:49:22.758Z,99432.10
2018-04-10T04:51:50.315Z,99432.83
2018-04-10T04:54:17.910Z,99432.11
2018-04-10T04:56:45.471Z,99431.13
2018-04-10T04:59:13.079Z,99434.61
2018-04-10T05:01:41.038Z,99429.89
2018-04-10T05:04:08.678Z,99430.37
2018-04-10T05:06:37.706Z,99435.77
2018-04-10T05:09:06.278Z,99433.74
2018-04-10T05:11:34.674Z,99440.53
2018-04-10T05:14:04.901Z,99439.67
2018-04-10T05:16:33.228Z,99441.17
2018-04-10T05:19:01.318Z,99434.47
2018-04-10T05:21:29.420Z,99438.48
2018-04-10T05:23:57.489Z,99440.73
2018-04-10T05:26:25.309Z,99427.55
2018-04-10T05:28:53.359Z,99429.66
2018-04-10T05:31:21.200Z,99436.15
2018-04-10T05:33:49.151Z,99439.27
2018-04-10T05:36:16.720Z,99428.61
2018-04-10T05:38:44.278Z,99427.64
2018-04-10T05:41:11.906Z,99434.16
2018-04-10T05:43:39.464Z,99429.47
2018-04-10T05:46:07.074Z,99430.48
2018-04-10T05:48:34.834Z,99442.34
2018-04-10T05:51:02.753Z,99433.89
2018-04-10T05:53:30.958Z,99438.20
2018-04-10T05:55:58.526Z,99438.75
2018-04-10T05:58:26.922Z,99437.60
2018-04-10T06:00:54.804Z,99444.08
2018-04-10T06:03:22.634Z,99443.20
2018-04-10T06:05:50.407Z,99439.56
2018-04-10T06:08:18.027Z,99434.14
2018-04-10T06:10:49.963Z,99434.06
2018-04-10T06:13:23.479Z,99428.11
2018-04-10T06:15:56.856Z,99426.70
2018-04-10T06:18:27.163Z,99423.11
2018-04-10T06:20:55.847Z,99425.35
2018-04-10T06:23:23.523Z,99423.94
2018-04-10T06:25:51.596Z,99421.61
2018-04-10T06:28:19.147Z,99416.25
2018-04-10T06:30:46.760Z,99416.05
2018-04-10T06:33:14.567Z,99413.09
2018-04-10T06:35:42.127Z,99403.51
2018-04-10T06:38:09.875Z,99405.94
2018-04-10T06:40:37.796Z,99403.60
2018-04-10T06:43:07.782Z,99406.56
2018-04-10T06:45:35.493Z,99406.83
2018-04-10T06:48:04.217Z,99404.39
2018-04-10T06:50:31.772Z,99406.22
2018-04-10T06:53:00.184Z,99409.92
2018-04-10T06:55:28.404Z,99410.98
2018-04-10T06:57:55.978Z,99409.45
2018-04-10T07:00:23.539Z,99407.36
2018-04-10T07:02:51.390Z,99409.55
2018-04-10T07:05:19.895Z,99403.63
2018-04-10T07:07:48.805Z,99397.69
2018-04-10T07:10:17.170Z,99402.33
2018-04-10T07:12:44.737Z,99395.34
2018-04-10T07:15:12.350Z,99389.78
2018-04-10T07:17:39.964Z,99387.67
2018-04-10T07:20:07.570Z,99389.83
2018-04-10T07:22:36.531Z,99391.39
2018-04-10T07:25:04.092Z,99387.39
2018-04-10T07:27:31.799Z,99383.86
2018-04-10T07:29:59.353Z,99379.04
2018-04-10T07:32:26.999Z,99374.05
2018-04-10T07:34:54.570Z,99371.83
2018-04-10T07:37:22.130Z,99361.67
2018-04-10T07:39:50.246Z,99352.43
2018-04-10T07:42:17.880Z,99357.77
2018-04-10T07:44:45.452Z,99352.81
2018-04-10T07:47:13.070Z,99355.61
2018-04-10T07:49:40.744Z,99356.19
2018-04-10T07:52:08.328Z,99352.29
2018-04-10T07:54:35.951Z,99356.55
2018-04-10T07:57:04.009Z,99359.84
2018-04-10T07:59:32.275Z,99354.96
2018-04-10T08:02:00.176Z,99342.86
2018-04-10T08:04:28.160Z,99341.80
2018-04-10T08:06:55.783Z,99329.98
2018-04-10T08:09:23.358Z,99331.80
2018-04-10T08:11:50.940Z,99330.05
2018-04-10T08:14:18.691Z,99331.42
2018-04-10T08:16:46.246Z,99328.06
2018-04-10T08:19:13.866Z,99325.66
2018-04-10T08:21:41.976Z,99330.96
2018-04-10T08:24:09.532Z,99328.00
2018-04-10T08:26:37.122Z,99325.21
2018-04-10T08:29:05.014Z,99322.91
2018-04-10T08:31:32.578Z,99317.08
2018-04-10T08:34:00.207Z,99316.80
2018-04-10T08:36:27.778Z,99315.84
2018-04-10T08:38:55.349Z,99311.50
2018-04-10T08:41:22.947Z,99304.02
2018-04-10T08:43:51.590Z,99294.08
2018-04-10T08:46:19.298Z,99287.70
2018-04-10T08:48:46.852Z,99284.87
2018-04-10T08:51:14.524Z,99282.59
2018-04-10T08:53:43.398Z,99272.03
2018-04-10T08:56:11.001Z,99267.70
2018-04-10T08:58:39.115Z,99271.17
2018-04-10T09:01:06.814Z,99277.37
2018-04-10T09:03:34.426Z,99270.03
2018-04-10T09:06:02.479Z,99260.70
2018-04-10T09:08:30.122Z,99266.03
2018-04-10T09:10:57.686Z,99268.19
2018-04-10T09:13:25.324Z,99274.75
2018-04-10T09:15:53.893Z,99276.02
2018-04-10T09:18:22.034Z,99276.91
2018-04-10T09:20:49.787Z,99281.60
2018-04-10T09:23:17.402Z,99278.50
2018-04-10T09:25:44.996Z,99271.35
2018-04-10T09:28:12.554Z,99278.06
2018-04-10T09:30:40.174Z,99273.44
2018-04-10T09:33:08.229Z,99269.75
2018-04-10T09:35:36.169Z,99263.05
2018-04-10T09:38:03.877Z,99259.63
2018-04-10T09:40:32.325Z,99262.25
2018-04-10T09:43:00.023Z,99253.83
2018-04-10T09:45:34.377Z,99244.86
2018-04-10T09:48:01.944Z,99247.85
2018-04-10T09:50:29.852Z,99253.97
2018-04-10T09:52:58.455Z,99250.28
2018-04-10T09:55:26.023Z,99256.09
2018-04-10T09:57:54.008Z,99248.59
2018-04-10T10:00:27.319Z,99232.66
2018-04-10T10:02:54.915Z,99230.56
2018-04-10T10:05:22.558Z,99226.70
2018-04-10T10:07:50.247Z,99226.48
2018-04-10T10:10:17.840Z,99230.48
2018-04-10T10:12:45.516Z,99235.47
2018-04-10T10:15:13.088Z,99232.72
2018-04-10T10:17:40.655Z,99228.14
2018-04-10T10:20:08.284Z,99225.88
2018-04-10T10:22:36.131Z,99220.16
2018-04-10T10:25:04.191Z,99217.00
2018-04-10T10:27:31.863Z,99217.97
2018-04-10T10:29:59.748Z,99217.66
2018-04-10T10:32:27.294Z,99208.59
2018-04-10T10:34:55.037Z,99200.79
2018-04-10T10:37:22.808Z,99197.45
2018-04-10T10:39:51.175Z,99186.52
2018-04-10T10:42:18.946Z,99186.36
2018-04-10T10:44:46.546Z,99180.07
2018-04-10T10:47:14.120Z,99174.58
2018-04-10T10:49:42.110Z,99171.76
2018-04-10T10:52:10.192Z,99160.83
2018-04-10T10:54:37.806Z,99167.56
2018-04-10T10:57:06.025Z,99171.17
2018-04-10T10:59:34.227Z,99173.91
2018-04-10T11:02:01.794Z,99167.39
2018-04-10T11:04:29.373Z,99171.16
2018-04-10T11:06:57.226Z,99157.91
2018-04-10T11:09:25.081Z,99159.43
2018-04-10T11:11:52.757Z,99161.53
2018-04-10T11:14:20.350Z,99167.34
2018-04-10T11:16:48.506Z,99159.67
2018-04-10T11:19:16.095Z,99153.27
2018-04-10T11:21:44.374Z,99153.20
2018-04-10T11:24:12.164Z,99154.38
2018-04-10T11:26:39.955Z,99147.73
2018-04-10T11:29:07.529Z,99147.45
2018-04-10T11:31:35.100Z,99144.86
2018-04-10T11:34:02.696Z,99142.23
2018-04-10T11:36:30.256Z,99144.06
2018-04-10T11:38:57.875Z,99136.48
2018-04-10T11:41:25.483Z,99130.14
2018-04-10T11:43:53.535Z,99121.91
2018-04-10T11:46:21.203Z,99120.73
2018-04-10T11:48:48.771Z,99117.42
2018-04-10T11:51:16.647Z,99112.09
2018-04-10T11:53:44.253Z,99113.00
2018-04-10T11:56:11.817Z,99121.48
2018-04-10T11:58:39.810Z,99117.48
2018-04-10T12:01:07.420Z,99119.41
2018-04-10T12:03:35.458Z,99112.76
2018-04-10T12:06:03.401Z,99110.59
2018-04-10T12:08:30.980Z,99110.84
2018-04-10T12:10:58.806Z,99105.59
2018-04-10T12:13:26.826Z,99096.84
2018-04-10T12:15:54.374Z,99094.52
2018-04-10T12:18:22.360Z,99086.54
2018-04-10T12:20:49.968Z,99083.53
2018-04-10T12:23:17.911Z,99086.09
2018-04-10T12:25:45.467Z,99071.52
2018-04-10T12:28:13.342Z,99069.47
2018-04-10T12:30:41.019Z,99051.78
2018-04-10T12:33:09.243Z,99043.80
2018-04-10T12:35:37.000Z,99040.83
2018-04-10T12:38:05.033Z,99034.94
2018-04-10T12:40:32.983Z,99030.56
2018-04-10T12:43:00.547Z,99032.66
2018-04-10T12:45:28.108Z,99027.17
2018-04-10T12:47:55.812Z,99023.94
2018-04-10T12:50:23.765Z,99021.55
2018-04-10T12:52:51.339Z,99022.03
2018-04-10T12:55:18.955Z,99027.36
2018-04-10T12:57:46.562Z,99025.73
2018-04-10T13:00:14.122Z,99020.25
2018-04-10T13:02:41.916Z,99020.14
2018-04-10T13:05:09.462Z,99013.48
2018-04-10T13:07:37.510Z,99010.66
2018-04-10T13:10:05.231Z,99007.70
2018-04-10T13:12:33.102Z,99007.36
2018-04-10T13:15:00.664Z,98996.47
2018-04-10T13:17:28.716Z,98989.55
2018-04-10T13:19:56.275Z,98986.39
2018-04-10T13:22:33.117Z,98980.11
2018-04-10T13:25:01.059Z,98972.20
2018-04-10T13:27:28.606Z,98964.13
2018-04-10T13:29:56.202Z,98961.84
2018-04-10T13:32:24.570Z,98954.31
2018-04-10T13:34:52.170Z,98951.61
2018-04-10T13:37:20.690Z,98948.72
2018-04-10T13:39:48.275Z,98942.18
2018-04-10T13:42:15.867Z,98955.45
2018-04-10T13:44:43.419Z,98946.42
2018-04-10T13:47:11.011Z,98950.70
2018-04-10T13:49:38.624Z,98950.39
2018-04-10T13:52:06.175Z,98954.31
2018-04-10T13:54:33.729Z,98950.47
2018-04-10T13:57:01.318Z,98946.97
2018-04-10T13:59:29.164Z,98952.38
2018-04-10T14:01:57.027Z,98945.83
2018-04-10T14:04:24.645Z,98945.56
2018-04-10T14:06:52.585Z,98954.24
2018-04-10T14:09:20.185Z,98953.03
2018-04-10T14:11:47.786Z,98953.67
2018-04-10T14:14:16.029Z,98955.62
2018-04-10T14:16:43.720Z,98953.11
2018-04-10T14:19:11.713Z,98955.81
2018-04-10T14:21:40.046Z,98959.04
2018-04-10T14:24:07.631Z,98970.45
2018-04-10T14:26:35.895Z,98974.18
2018-04-10T14:29:03.502Z,98971.14
2018-04-10T14:31:31.083Z,98969.39
2018-04-10T14:33:58.686Z,98961.97
2018-04-10T14:36:26.329Z,98969.12
2018-04-10T14:38:53.969Z,98961.13
2018-04-10T14:41:21.530Z,98962.54
2018-04-10T14:43:49.123Z,98956.34
2018-04-10T14:46:16.847Z,98963.16
2018-04-10T14:48:44.406Z,98964.48
2018-04-10T14:51:12.617Z,98967.71
2018-04-10T14:53:40.190Z,98966.92
2018-04-10T14:56:08.546Z,98965.85
2018-04-10T14:58:36.154Z,98966.91
2018-04-10T15:01:03.782Z,98960.03
2018-04-10T15:03:31.360Z,98954.41
2018-04-10T15:05:58.909Z,98950.06
2018-04-10T15:08:26.884Z,98946.64
2018-04-10T15:10:54.434Z,98950.22
2018-04-10T15:13:22.034Z,98951.13
2018-04-10T15:15:49.581Z,98956.45
2018-04-10T15:18:17.337Z,98951.13
2018-04-10T15:20:45.468Z,98950.68
2018-04-10T15:23:13.354Z,98954.67
2018-04-10T15:25:40.954Z,98951.47
2018-04-10T15:28:08.583Z,98951.97
2018-04-10T15:30:36.514Z,98951.13
2018-04-10T15:33:04.287Z,98957.83
2018-04-10T15:35:31.879Z,98956.30
2018-04-10T15:38:00.173Z,98957.25
2018-04-10T15:40:28.194Z,98955.27
2018-04-10T15:42:56.634Z,98952.00
2018-04-10T15:45:24.666Z,98949.45
2018-04-10T15:47:52.275Z,98947.40
2018-04-10T15:50:19.841Z,98945.45
2018-04-10T15:52:47.697Z,98947.88
2018-04-10T15:55:16.890Z,98941.50
2018-04-10T15:57:45.375Z,98946.05
2018-04-10T16:00:13.571Z,98939.09
2018-04-10T16:02:41.153Z,98945.25
2018-04-10T16:05:08.855Z,98940.13
2018-04-10T16:07:38.063Z,98930.88
2018-04-10T16:10:05.654Z,98932.63
2018-04-10T16:12:34.157Z,98928.22
2018-04-10T16:15:02.014Z,98927.46
2018-04-10T16:17:30.054Z,98925.30
2018-04-10T16:19:58.219Z,98929.86
2018-04-10T16:22:26.230Z,98922.98
2018-04-10T16:24:54.017Z,98921.45
2018-04-10T16:27:22.426Z,98927.87
2018-04-10T16:29:49.981Z,98924.98
2018-04-10T16:32:17.586Z,98931.39
2018-04-10T16:34:45.206Z,98927.63
2018-04-10T16:37:12.909Z,98929.67
2018-04-10T16:39:42.410Z,98930.39
2018-04-10T16:42:11.093Z,98930.64
2018-04-10T16:44:40.278Z,98920.92
2018-04-10T16:47:07.847Z,98913.63
2018-04-10T16:49:36.565Z,98915.20
2018-04-10T16:52:04.208Z,98908.41
2018-04-10T16:54:31.959Z,98910.34
2018-04-10T16:57:00.236Z,98909.92
2018-04-10T16:59:27.820Z,98913.98
2018-04-10T17:01:55.487Z,98908.42
2018-04-10T17:04:23.834Z,98917.01
2018-04-10T17:06:52.522Z,98917.22
2018-04-10T17:09:20.115Z,98918.73
2018-04-10T17:11:47.670Z,98929.45
2018-04-10T17:14:15.871Z,98931.86
2018-04-10T17:16:43.937Z,98936.56
2018-04-10T17:19:13.496Z,98949.41
2018-04-10T17:21:41.868Z,98951.15
2018-04-10T17:24:09.499Z,98951.00
2018-04-10T17:26:38.009Z,98957.63
2018-04-10T17:29:07.354Z,98964.23
2018-04-10T17:31:35.482Z,98966.72
2018-04-10T17:34:03.873Z,98971.74
2018-04-10T17:36:31.989Z,98983.11
2018-04-10T17:39:00.058Z,98976.60
2018-04-10T17:41:28.278Z,98976.25
2018-04-10T17:43:56.237Z,98975.68
2018-04-10T17:46:24.089Z,98983.98
2018-04-10T17:48:51.992Z,98986.66
2018-04-10T17:51:20.112Z,98983.87
2018-04-10T17:53:48.626Z,98995.95
2018-04-10T17:56:18.480Z,98995.27
2018-04-10T17:58:46.731Z,98993.05
2018-04-10T18:01:14.690Z,98992.91
2018-04-10T18:03:42.688Z,98989.55
2018-04-10T18:06:10.387Z,98999.54
2018-04-10T18:08:37.971Z,99000.30
2018-04-10T18:11:05.814Z,99006.02
2018-04-10T18:13:33.731Z,98999.77
2018-04-10T18:16:02.808Z,98994.93
2018-04-10T18:18:30.810Z,98984.22
2018-04-10T18:20:58.950Z,98978.86
2018-04-10T18:23:26.891Z,98985.68
2018-04-10T18:25:54.490Z,98982.02
2018-04-10T18:28:22.551Z,98990.22
2018-04-10T18:30:50.122Z,98992.77
2018-04-10T18:33:17.726Z,98989.73
2018-04-10T18:35:47.992Z,98990.15
2018-04-10T18:38:15.861Z,98984.20
2018-04-10T18:40:43.482Z,98982.52
2018-04-10T18:43:11.042Z,98984.67
2018-04-10T18:45:39.326Z,98983.53
2018-04-10T18:48:07.826Z,98982.03
2018-04-10T18:50:35.435Z,98986.44
2018-04-10T18:53:03.049Z,98992.53
2018-04-10T18:55:30.654Z,98990.41
2018-04-10T18:57:58.258Z,98989.82
2018-04-10T19:00:26.959Z,98988.67
2018-04-10T19:02:54.672Z,98992.16
2018-04-10T19:05:22.762Z,98994.87
2018-04-10T19:07:51.178Z,99000.17
2018-04-10T19:10:18.788Z,99004.14
2018-04-10T19:12:47.234Z,99009.53
2018-04-10T19:15:15.627Z,99006.98
2018-04-10T19:17:43.208Z,99003.52
2018-04-10T19:20:10.978Z,98999.53
2018-04-10T19:22:39.393Z,98995.08
2018-04-10T19:25:07.013Z,98997.86
2018-04-10T19:27:35.330Z,98999.55
2018-04-10T19:30:04.326Z,99016.22
2018-04-10T19:32:31.933Z,99029.69
2018-04-10T19:35:00.376Z,99029.48
2018-04-10T19:37:31.020Z,99027.03
2018-04-10T19:39:59.623Z,99015.69
2018-04-10T19:42:27.366Z,99018.27
2018-04-10T19:44:55.243Z,99004.27
2018-04-10T19:47:24.506Z,99002.97
2018-04-10T19:49:52.062Z,99001.35
2018-04-10T19:52:20.340Z,99001.48
2018-04-10T19:54:48.290Z,99004.84
2018-04-10T19:57:16.206Z,99001.09
2018-04-10T19:59:44.422Z,99005.46
2018-04-10T20:02:12.377Z,99005.13
2018-04-10T20:04:39.991Z,99002.78
2018-04-10T20:07:08.492Z,98996.41
2018-04-10T20:09:36.250Z,99007.27
2018-04-10T20:12:04.882Z,99012.70
2018-04-10T20:14:32.673Z,99024.63
2018-04-10T20:17:01.055Z,99039.16
2018-04-10T20:19:28.701Z,99044.17
2018-04-10T20:21:56.260Z,99060.05
2018-04-10T20:24:23.811Z,99064.04
2018-04-10T20:26:51.427Z,99061.89
2018-04-10T20:29:19.040Z,99071.42
2018-04-10T20:31:47.128Z,99066.04
2018-04-10T20:34:14.738Z,99064.50
2018-04-10T20:36:42.327Z,99069.73
2018-04-10T20:39:09.921Z,99079.27
2018-04-10T20:41:37.510Z,99082.37
2018-04-10T20:44:05.126Z,99093.23
2018-04-10T20:46:32.758Z,99091.14
2018-04-10T20:49:02.153Z,99088.64
2018-04-10T20:51:29.806Z,99097.58
2018-04-10T20:53:57.361Z,99103.39
2018-04-10T20:56:24.998Z,99106.32
2018-04-10T20:58:52.553Z,99116.16
2018-04-10T21:01:20.494Z,99121.30
2018-04-10T21:03:48.098Z,99124.97
2018-04-10T21:06:15.891Z,99129.91
2018-04-10T21:08:43.494Z,99130.09
2018-04-10T21:11:11.723Z,99135.27
2018-04-10T21:13:39.887Z,99138.03
2018-04-10T21:16:07.442Z,99137.91
2018-04-10T21:18:35.068Z,99129.82
2018-04-10T21:21:02.938Z,99130.83
2018-04-10T21:23:30.502Z,99124.69
2018-04-10T21:25:58.078Z,99111.26
2018-04-10T21:28:26.203Z,99109.63
2018-04-10T21:30:53.815Z,99111.45
2018-04-10T21:33:21.438Z,99100.58
2018-04-10T21:35:49.068Z,99100.88
2018-04-10T21:38:16.996Z,99098.89
2018-04-10T21:40:45.455Z,99102.22
2018-04-10T21:43:18.521Z,99099.58
2018-04-10T21:45:46.075Z,99099.66
2018-04-10T21:48:13.689Z,99093.43
2018-04-10T21:50:41.246Z,99096.70
2018-04-10T21:53:08.851Z,99086.02
2018-04-10T21:55:36.441Z,99079.47
2018-04-10T21:58:04.092Z,99076.75
2018-04-10T22:00:32.189Z,99080.29
2018-04-10T22:02:59.802Z,99078.98
2018-04-10T22:05:27.602Z,99072.63
2018-04-10T22:07:55.556Z,99065.96
2018-04-10T22:10:23.360Z,99066.04
2018-04-10T22:12:51.482Z,99068.14
2018-04-10T22:15:19.251Z,99061.50
2018-04-10T22:17:46.814Z,99056.14
2018-04-10T22:20:14.421Z,99053.27
2018-04-10T22:22:42.430Z,99050.29
2018-04-10T22:25:10.350Z,99044.20
2018-04-10T22:27:38.773Z,99047.69
2018-04-10T22:30:06.327Z,99041.06
2018-04-10T22:32:33.868Z,99038.50
2018-04-10T22:35:01.476Z,99043.31
2018-04-10T22:37:29.088Z,99045.98
2018-04-10T22:39:56.732Z,99046.56
2018-04-10T22:42:24.317Z,99044.42
2018-04-10T22:44:52.243Z,99047.01
2018-04-10T22:47:19.848Z,99042.66
2018-04-10T22:49:47.945Z,99048.33
2018-04-10T22:52:15.503Z,99043.11
2018-04-10T22:54:43.178Z,99050.46
2018-04-10T22:57:10.750Z,99050.62
2018-04-10T22:59:38.318Z,99047.61
2018-04-10T23:02:06.179Z,99048.49
2018-04-10T23:04:33.791Z,99044.88
2018-04-10T23:07:01.395Z,99051.33
2018-04-10T23:09:28.995Z,99058.28
2018-04-10T23:11:56.877Z,99054.98
2018-04-10T23:14:24.710Z,99062.45
2018-04-10T23:16:52.315Z,99061.97
2018-04-10T23:19:20.484Z,99057.69
2018-04-10T23:21:48.096Z,99054.33
2018-04-10T23:24:15.675Z,99050.03
2018-04-10T23:26:43.468Z,99046.23
2018-04-10T23:29:11.135Z,99049.21
2018-04-10T23:31:38.717Z,99042.75
2018-04-10T23:34:06.294Z,99033.21
2018-04-10T23:36:33.933Z,99038.38
2018-04-10T23:39:01.491Z,99039.64
2018-04-10T23:41:29.127Z,99041.12
2018-04-10T23:43:57.509Z,99036.19
2018-04-10T23:46:25.327Z,99032.65
2018-04-10T23:48:52.911Z,99032.59
2018-04-10T23:51:20.502Z,99030.89
2018-04-10T23:53:48.276Z,99027.81
2018-04-10T23:56:16.485Z,99023.70
2018-04-10T23:58:44.094Z,99021.44
